sensor_id;sensor_type;location;lat;lon;timestamp;pressure;altitude;pressure_sealevel;temperature;humidity
38289;BME280;24092;53.370;-6.588;2023-04-03T00:00:32;102250.00;;;-0.25;100.00
38289;BME280;24092;53.370;-6.588;2023-04-03T00:02:59;102243.94;;;-1.07;100.00
38289;BME280;24092;53.370;-6.588;2023-04-03T00:05:26;102237.83;;;-1.63;100.00
38289;BME280;24092;53.370;-6.588;2023-04-03T00:07:53;102240.18;;;-1.70;100.00
38289;BME280;24092;53.370;-6.588;2023-04-03T00:10:21;102238.18;;;-1.07;100.00
38289;BME280;24092;53.370;-6.588;2023-04-03T00:12:48;102238.44;;;0.24;100.00
38289;BME280;24092;53.370;-6.588;2023-04-03T00:15:15;102231.24;;;1.84;100.00
38289;BME280;24092;53.370;-6.588;2023-04-03T00:17:42;102225.80;;;2.19;100.00
38289;BME280;24092;53.370;-6.588;2023-04-03T00:20:10;102224.17;;;3.33;100.00
38289;BME280;24092;53.370;-6.588;2023-04-03T00:22:37;102219.85;;;3.12;100.00
38289;BME280;24092;53.370;-6.588;2023-04-03T00:25:05;102217.55;;;-0.17;100.00
38289;BME280;24092;53.370;-6.588;2023-04-03T00:27:32;102213.42;;;-1.04;100.00
38289;BME280;24092;53.370;-6.588;2023-04-03T00:29:59;102208.86;;;-1.48;100.00
38289;BME280;24092;53.370;-6.588;2023-04-03T00:32:27;102206.15;;;-0.03;100.00
38289;BME280;24092;53.370;-6.588;2023-04-03T00:34:54;102202.95;;;1.35;100.00
38289;BME280;24092;53.370;-6.588;2023-04-03T00:37:21;102202.75;;;0.50;100.00
38289;BME280;24092;53.370;-6.588;2023-04-03T00:39:48;102202.20;;;-0.78;100.00
38289;BME280;24092;53.370;-6.588;2023-04-03T00:42:15;102202.50;;;-0.32;100.00
38289;BME280;24092;53.370;-6.588;2023-04-03T00:45:28;102204.15;;;-0.17;100.00
38289;BME280;24092;53.370;-6.588;2023-04-03T00:47:56;102204.73;;;0.38;100.00
38289;BME280;24092;53.370;-6.588;2023-04-03T00:50:23;102203.43;;;2.40;100.00
38289;BME280;24092;53.370;-6.588;2023-04-03T00:52:51;102201.50;;;1.82;100.00
38289;BME280;24092;53.370;-6.588;2023-04-03T00:55:20;102202.73;;;0.13;100.00
38289;BME280;24092;53.370;-6.588;2023-04-03T00:57:48;102196.57;;;0.73;100.00
38289;BME280;24092;53.370;-6.588;2023-04-03T01:00:18;102198.96;;;1.36;100.00
38289;BME280;24092;53.370;-6.588;2023-04-03T01:02:46;102202.47;;;0.57;100.00
38289;BME280;24092;53.370;-6.588;2023-04-03T01:05:13;102201.93;;;0.29;100.00
38289;BME280;24092;53.370;-6.588;2023-04-03T01:07:42;102200.62;;;2.37;100.00
38289;BME280;24092;53.370;-6.588;2023-04-03T01:10:12;102196.24;;;0.60;100.00
38289;BME280;24092;53.370;-6.588;2023-04-03T01:12:42;102196.55;;;0.33;100.00
38289;BME280;24092;53.370;-6.588;2023-04-03T01:15:12;102201.68;;;-1.03;100.00
38289;BME280;24092;53.370;-6.588;2023-04-03T01:17:42;102201.23;;;-1.00;100.00
38289;BME280;24092;53.370;-6.588;2023-04-03T01:20:39;102204.93;;;-1.19;100.00
38289;BME280;24092;53.370;-6.588;2023-04-03T01:23:22;102205.00;;;-1.08;100.00
38289;BME280;24092;53.370;-6.588;2023-04-03T01:25:54;102204.38;;;-1.69;100.00
38289;BME280;24092;53.370;-6.588;2023-04-03T01:28:24;102205.13;;;-1.61;100.00
38289;BME280;24092;53.370;-6.588;2023-04-03T01:30:59;102206.05;;;-2.39;100.00
38289;BME280;24092;53.370;-6.588;2023-04-03T01:33:27;102201.61;;;-2.24;100.00
38289;BME280;24092;53.370;-6.588;2023-04-03T01:35:54;102193.98;;;-2.48;100.00
38289;BME280;24092;53.370;-6.588;2023-04-03T01:38:21;102189.29;;;-1.62;100.00
38289;BME280;24092;53.370;-6.588;2023-04-03T01:40:48;102191.39;;;-1.58;100.00
38289;BME280;24092;53.370;-6.588;2023-04-03T01:43:15;102190.05;;;-0.40;100.00
38289;BME280;24092;53.370;-6.588;2023-04-03T01:45:42;102185.73;;;1.07;100.00
38289;BME280;24092;53.370;-6.588;2023-04-03T01:48:09;102187.62;;;-0.14;100.00
38289;BME280;24092;53.370;-6.588;2023-04-03T01:50:36;102186.17;;;-0.18;100.00
38289;BME280;24092;53.370;-6.588;2023-04-03T01:53:04;102180.00;;;-1.41;100.00
38289;BME280;24092;53.370;-6.588;2023-04-03T01:55:30;102180.63;;;0.29;100.00
38289;BME280;24092;53.370;-6.588;2023-04-03T01:57:58;102180.49;;;0.95;100.00
38289;BME280;24092;53.370;-6.588;2023-04-03T02:00:25;102180.77;;;-0.29;100.00
38289;BME280;24092;53.370;-6.588;2023-04-03T02:02:52;102178.80;;;-2.61;100.00
38289;BME280;24092;53.370;-6.588;2023-04-03T02:05:19;102176.02;;;-3.71;100.00
38289;BME280;24092;53.370;-6.588;2023-04-03T02:07:46;102170.93;;;-3.94;100.00
38289;BME280;24092;53.370;-6.588;2023-04-03T02:10:13;102168.69;;;-3.74;100.00
38289;BME280;24092;53.370;-6.588;2023-04-03T02:12:41;102171.62;;;-3.04;100.00
38289;BME280;24092;53.370;-6.588;2023-04-03T02:15:08;102170.61;;;-2.16;100.00
38289;BME280;24092;53.370;-6.588;2023-04-03T02:17:36;102166.70;;;-2.95;100.00
38289;BME280;24092;53.370;-6.588;2023-04-03T02:20:04;102161.53;;;-1.88;100.00
38289;BME280;24092;53.370;-6.588;2023-04-03T02:22:32;102156.41;;;0.07;100.00
38289;BME280;24092;53.370;-6.588;2023-04-03T02:24:59;102148.27;;;-0.02;100.00
38289;BME280;24092;53.370;-6.588;2023-04-03T02:27:26;102145.31;;;-0.08;100.00
38289;BME280;24092;53.370;-6.588;2023-04-03T02:29:54;102140.03;;;-1.11;100.00
38289;BME280;24092;53.370;-6.588;2023-04-03T02:32:21;102135.67;;;-2.15;100.00
38289;BME280;24092;53.370;-6.588;2023-04-03T02:34:48;102130.64;;;-2.37;100.00
38289;BME280;24092;53.370;-6.588;2023-04-03T02:37:15;102124.06;;;-2.58;100.00
38289;BME280;24092;53.370;-6.588;2023-04-03T02:39:43;102125.50;;;0.02;100.00
38289;BME280;24092;53.370;-6.588;2023-04-03T02:42:10;102119.71;;;-1.71;100.00
38289;BME280;24092;53.370;-6.588;2023-04-03T02:44:37;102117.99;;;-3.02;100.00
38289;BME280;24092;53.370;-6.588;2023-04-03T02:47:04;102115.78;;;-3.77;100.00
38289;BME280;24092;53.370;-6.588;2023-04-03T02:49:31;102114.79;;;-2.94;100.00
38289;BME280;24092;53.370;-6.588;2023-04-03T02:51:58;102107.93;;;-3.02;100.00
38289;BME280;24092;53.370;-6.588;2023-04-03T02:54:25;102107.53;;;-2.02;100.00
38289;BME280;24092;53.370;-6.588;2023-04-03T02:56:52;102107.15;;;-2.35;100.00
38289;BME280;24092;53.370;-6.588;2023-04-03T02:59:20;102104.62;;;-3.75;100.00
38289;BME280;24092;53.370;-6.588;2023-04-03T03:01:47;102102.54;;;-3.75;100.00
38289;BME280;24092;53.370;-6.588;2023-04-03T03:04:14;102099.12;;;-3.39;100.00
38289;BME280;24092;53.370;-6.588;2023-04-03T03:06:41;102101.83;;;-3.04;100.00
38289;BME280;24092;53.370;-6.588;2023-04-03T03:09:08;102098.07;;;-2.10;100.00
38289;BME280;24092;53.370;-6.588;2023-04-03T03:11:35;102095.51;;;-2.26;100.00
38289;BME280;24092;53.370;-6.588;2023-04-03T03:14:02;102094.85;;;-2.31;100.00
38289;BME280;24092;53.370;-6.588;2023-04-03T03:16:30;102095.50;;;-1.86;100.00
38289;BME280;24092;53.370;-6.588;2023-04-03T03:18:57;102094.45;;;-1.61;100.00
38289;BME280;24092;53.370;-6.588;2023-04-03T03:21:24;102090.72;;;-1.74;100.00
38289;BME280;24092;53.370;-6.588;2023-04-03T03:23:51;102091.94;;;-2.05;100.00
38289;BME280;24092;53.370;-6.588;2023-04-03T03:26:19;102091.40;;;-2.00;100.00
38289;BME280;24092;53.370;-6.588;2023-04-03T03:28:46;102092.56;;;-0.95;100.00
38289;BME280;24092;53.370;-6.588;2023-04-03T03:31:13;102089.41;;;0.13;100.00
38289;BME280;24092;53.370;-6.588;2023-04-03T03:33:40;102092.12;;;-0.72;100.00
38289;BME280;24092;53.370;-6.588;2023-04-03T03:36:07;102089.90;;;1.08;100.00
38289;BME280;24092;53.370;-6.588;2023-04-03T03:38:34;102091.12;;;0.52;100.00
38289;BME280;24092;53.370;-6.588;2023-04-03T03:41:01;102095.29;;;-1.55;100.00
38289;BME280;24092;53.370;-6.588;2023-04-03T03:43:29;102090.39;;;-0.97;100.00
38289;BME280;24092;53.370;-6.588;2023-04-03T03:45:56;102090.99;;;-0.62;100.00
38289;BME280;24092;53.370;-6.588;2023-04-03T03:48:23;102089.24;;;-2.15;100.00
38289;BME280;24092;53.370;-6.588;2023-04-03T03:50:50;102088.86;;;-2.25;100.00
38289;BME280;24092;53.370;-6.588;2023-04-03T03:53:17;102083.56;;;-1.48;100.00
38289;BME280;24092;53.370;-6.588;2023-04-03T03:55:45;102085.84;;;-0.92;100.00
38289;BME280;24092;53.370;-6.588;2023-04-03T03:58:12;102088.40;;;-1.37;100.00
38289;BME280;24092;53.370;-6.588;2023-04-03T04:00:39;102083.14;;;0.05;100.00
38289;BME280;24092;53.370;-6.588;2023-04-03T04:03:06;102083.74;;;0.06;100.00
38289;BME280;24092;53.370;-6.588;2023-04-03T04:05:33;102082.07;;;-0.38;100.00
38289;BME280;24092;53.370;-6.588;2023-04-03T04:08:00;102082.39;;;0.48;100.00
38289;BME280;24092;53.370;-6.588;2023-04-03T04:10:27;102081.41;;;-1.61;100.00
38289;BME280;24092;53.370;-6.588;2023-04-03T04:12:54;102083.29;;;-0.50;100.00
38289;BME280;24092;53.370;-6.588;2023-04-03T04:15:21;102080.92;;;0.44;100.00
38289;BME280;24092;53.370;-6.588;2023-04-03T04:17:49;102076.48;;;0.00;100.00
38289;BME280;24092;53.370;-6.588;2023-04-03T04:20:16;102076.14;;;2.56;100.00
38289;BME280;24092;53.370;-6.588;2023-04-03T04:22:43;102075.46;;;2.67;100.00
38289;BME280;24092;53.370;-6.588;2023-04-03T04:25:10;102077.65;;;1.01;100.00
38289;BME280;24092;53.370;-6.588;2023-04-03T04:27:37;102076.96;;;2.60;100.00
38289;BME280;24092;53.370;-6.588;2023-04-03T04:30:06;102079.20;;;1.49;100.00
38289;BME280;24092;53.370;-6.588;2023-04-03T04:32:34;102076.74;;;0.67;100.00
38289;BME280;24092;53.370;-6.588;2023-04-03T04:35:01;102079.78;;;0.62;100.00
38289;BME280;24092;53.370;-6.588;2023-04-03T04:37:29;102080.45;;;1.88;100.00
38289;BME280;24092;53.370;-6.588;2023-04-03T04:39:56;102078.42;;;1.17;100.00
38289;BME280;24092;53.370;-6.588;2023-04-03T04:42:23;102077.17;;;2.86;100.00
38289;BME280;24092;53.370;-6.588;2023-04-03T04:44:50;102076.57;;;1.60;100.00
38289;BME280;24092;53.370;-6.588;2023-04-03T04:47:17;102074.42;;;0.66;100.00
38289;BME280;24092;53.370;-6.588;2023-04-03T04:49:44;102069.80;;;0.24;100.00
38289;BME280;24092;53.370;-6.588;2023-04-03T04:52:11;102072.44;;;0.29;100.00
38289;BME280;24092;53.370;-6.588;2023-04-03T04:54:38;102067.57;;;-1.47;100.00
38289;BME280;24092;53.370;-6.588;2023-04-03T04:57:05;102064.93;;;0.02;100.00
38289;BME280;24092;53.370;-6.588;2023-04-03T04:59:33;102068.08;;;0.01;100.00
38289;BME280;24092;53.370;-6.588;2023-04-03T05:01:59;102069.28;;;-1.32;100.00
38289;BME280;24092;53.370;-6.588;2023-04-03T05:04:27;102066.52;;;-0.06;100.00
38289;BME280;24092;53.370;-6.588;2023-04-03T05:06:54;102065.39;;;-2.05;100.00
38289;BME280;24092;53.370;-6.588;2023-04-03T05:09:21;102067.57;;;-0.15;100.00
38289;BME280;24092;53.370;-6.588;2023-04-03T05:11:49;102070.55;;;-1.48;100.00
38289;BME280;24092;53.370;-6.588;2023-04-03T05:14:16;102064.88;;;-0.66;100.00
38289;BME280;24092;53.370;-6.588;2023-04-03T05:16:43;102063.63;;;-0.43;100.00
38289;BME280;24092;53.370;-6.588;2023-04-03T05:19:10;102064.85;;;-0.58;100.00
38289;BME280;24092;53.370;-6.588;2023-04-03T05:21:37;102065.35;;;-0.31;100.00
38289;BME280;24092;53.370;-6.588;2023-04-03T05:24:05;102062.15;;;1.05;100.00
38289;BME280;24092;53.370;-6.588;2023-04-03T05:26:33;102061.60;;;1.09;100.00
38289;BME280;24092;53.370;-6.588;2023-04-03T05:29:01;102063.75;;;0.76;100.00
38289;BME280;24092;53.370;-6.588;2023-04-03T05:31:27;102064.91;;;0.39;100.00
38289;BME280;24092;53.370;-6.588;2023-04-03T05:33:55;102063.67;;;0.84;100.00
38289;BME280;24092;53.370;-6.588;2023-04-03T05:36:22;102066.19;;;0.19;100.00
38289;BME280;24092;53.370;-6.588;2023-04-03T05:38:49;102064.37;;;1.61;100.00
38289;BME280;24092;53.370;-6.588;2023-04-03T05:41:16;102063.64;;;1.11;100.00
38289;BME280;24092;53.370;-6.588;2023-04-03T05:43:43;102066.28;;;2.58;100.00
38289;BME280;24092;53.370;-6.588;2023-04-03T05:46:11;102065.64;;;2.33;100.00
38289;BME280;24092;53.370;-6.588;2023-04-03T05:48:39;102062.75;;;2.74;100.00
38289;BME280;24092;53.370;-6.588;2023-04-03T05:51:09;102059.46;;;2.74;100.00
38289;BME280;24092;53.370;-6.588;2023-04-03T05:53:40;102058.86;;;1.91;100.00
38289;BME280;24092;53.370;-6.588;2023-04-03T05:56:08;102061.65;;;0.65;100.00
38289;BME280;24092;53.370;-6.588;2023-04-03T05:58:35;102062.14;;;2.29;100.00
38289;BME280;24092;53.370;-6.588;2023-04-03T06:01:02;102062.09;;;1.55;100.00
38289;BME280;24092;53.370;-6.588;2023-04-03T06:03:29;102057.20;;;-0.53;100.00
38289;BME280;24092;53.370;-6.588;2023-04-03T06:05:56;102051.88;;;-0.68;100.00
38289;BME280;24092;53.370;-6.588;2023-04-03T06:08:23;102054.76;;;-0.67;100.00
38289;BME280;24092;53.370;-6.588;2023-04-03T06:10:50;102057.37;;;0.59;100.00
38289;BME280;24092;53.370;-6.588;2023-04-03T06:13:17;102056.48;;;0.54;100.00
38289;BME280;24092;53.370;-6.588;2023-04-03T06:15:44;102052.37;;;1.91;100.00
38289;BME280;24092;53.370;-6.588;2023-04-03T06:18:12;102052.40;;;1.77;100.00
38289;BME280;24092;53.370;-6.588;2023-04-03T06:20:39;102055.29;;;2.98;100.00
38289;BME280;24092;53.370;-6.588;2023-04-03T06:23:06;102061.03;;;3.67;100.00
38289;BME280;24092;53.370;-6.588;2023-04-03T06:25:33;102061.49;;;3.86;100.00
38289;BME280;24092;53.370;-6.588;2023-04-03T06:28:00;102062.67;;;3.72;100.00
38289;BME280;24092;53.370;-6.588;2023-04-03T06:30:27;102059.39;;;4.37;100.00
38289;BME280;24092;53.370;-6.588;2023-04-03T06:32:54;102055.49;;;4.96;100.00
38289;BME280;24092;53.370;-6.588;2023-04-03T06:35:21;102058.73;;;5.03;100.00
38289;BME280;24092;53.370;-6.588;2023-04-03T06:37:48;102059.96;;;5.46;100.00
38289;BME280;24092;53.370;-6.588;2023-04-03T06:40:19;102060.67;;;5.69;100.00
38289;BME280;24092;53.370;-6.588;2023-04-03T06:42:48;102061.88;;;5.47;100.00
38289;BME280;24092;53.370;-6.588;2023-04-03T06:45:15;102064.53;;;5.64;100.00
38289;BME280;24092;53.370;-6.588;2023-04-03T06:47:42;102063.89;;;5.43;100.00
38289;BME280;24092;53.370;-6.588;2023-04-03T06:50:10;102061.46;;;4.54;100.00
38289;BME280;24092;53.370;-6.588;2023-04-03T06:52:38;102063.14;;;5.41;100.00
38289;BME280;24092;53.370;-6.588;2023-04-03T06:55:06;102063.20;;;5.22;100.00
38289;BME280;24092;53.370;-6.588;2023-04-03T06:57:33;102059.43;;;3.44;100.00
38289;BME280;24092;53.370;-6.588;2023-04-03T07:00:00;102053.53;;;5.28;100.00
38289;BME280;24092;53.370;-6.588;2023-04-03T07:02:28;102056.22;;;3.22;100.00
38289;BME280;24092;53.370;-6.588;2023-04-03T07:04:55;102055.64;;;4.99;100.00
38289;BME280;24092;53.370;-6.588;2023-04-03T07:07:22;102060.33;;;5.04;100.00
38289;BME280;24092;53.370;-6.588;2023-04-03T07:09:49;102058.12;;;5.16;100.00
38289;BME280;24092;53.370;-6.588;2023-04-03T07:12:16;102061.52;;;6.06;100.00
38289;BME280;24092;53.370;-6.588;2023-04-03T07:14:43;102064.40;;;5.78;100.00
38289;BME280;24092;53.370;-6.588;2023-04-03T07:17:10;102060.74;;;6.20;100.00
38289;BME280;24092;53.370;-6.588;2023-04-03T07:19:37;102061.49;;;6.85;100.00
38289;BME280;24092;53.370;-6.588;2023-04-03T07:22:04;102060.30;;;6.86;100.00
38289;BME280;24092;53.370;-6.588;2023-04-03T07:24:32;102057.06;;;6.17;100.00
38289;BME280;24092;53.370;-6.588;2023-04-03T07:26:58;102054.16;;;7.04;100.00
38289;BME280;24092;53.370;-6.588;2023-04-03T07:29:26;102058.47;;;7.15;100.00
38289;BME280;24092;53.370;-6.588;2023-04-03T07:31:52;102063.23;;;8.34;100.00
38289;BME280;24092;53.370;-6.588;2023-04-03T07:34:20;102063.54;;;8.36;100.00
38289;BME280;24092;53.370;-6.588;2023-04-03T07:36:47;102070.36;;;7.59;100.00
38289;BME280;24092;53.370;-6.588;2023-04-03T07:39:14;102070.13;;;8.48;100.00
38289;BME280;24092;53.370;-6.588;2023-04-03T07:41:41;102070.74;;;8.44;100.00
38289;BME280;24092;53.370;-6.588;2023-04-03T07:44:08;102072.80;;;7.54;100.00
38289;BME280;24092;53.370;-6.588;2023-04-03T07:46:35;102070.54;;;6.93;100.00
38289;BME280;24092;53.370;-6.588;2023-04-03T07:49:02;102076.97;;;7.43;100.00
38289;BME280;24092;53.370;-6.588;2023-04-03T07:51:29;102079.91;;;8.79;100.00
38289;BME280;24092;53.370;-6.588;2023-04-03T07:53:56;102082.96;;;8.01;100.00
38289;BME280;24092;53.370;-6.588;2023-04-03T07:56:23;102085.22;;;8.02;100.00
38289;BME280;24092;53.370;-6.588;2023-04-03T07:58:50;102079.22;;;6.93;100.00
38289;BME280;24092;53.370;-6.588;2023-04-03T08:01:17;102078.87;;;7.14;100.00
38289;BME280;24092;53.370;-6.588;2023-04-03T08:03:44;102082.01;;;7.24;100.00
38289;BME280;24092;53.370;-6.588;2023-04-03T08:06:11;102083.24;;;7.34;100.00
38289;BME280;24092;53.370;-6.588;2023-04-03T08:08:38;102079.27;;;7.71;100.00
38289;BME280;24092;53.370;-6.588;2023-04-03T08:11:05;102082.98;;;7.33;100.00
38289;BME280;24092;53.370;-6.588;2023-04-03T08:13:32;102083.82;;;7.69;100.00
38289;BME280;24092;53.370;-6.588;2023-04-03T08:16:08;102086.88;;;7.74;100.00
38289;BME280;24092;53.370;-6.588;2023-04-03T08:18:36;102086.33;;;6.86;100.00
38289;BME280;24092;53.370;-6.588;2023-04-03T08:21:06;102087.82;;;7.00;100.00
38289;BME280;24092;53.370;-6.588;2023-04-03T08:23:33;102092.48;;;8.37;100.00
38289;BME280;24092;53.370;-6.588;2023-04-03T08:26:06;102090.54;;;7.79;100.00
38289;BME280;24092;53.370;-6.588;2023-04-03T08:28:34;102088.60;;;7.14;100.00
38289;BME280;24092;53.370;-6.588;2023-04-03T08:31:04;102088.29;;;7.34;100.00
38289;BME280;24092;53.370;-6.588;2023-04-03T08:33:31;102092.47;;;7.59;100.00
38289;BME280;24092;53.370;-6.588;2023-04-03T08:35:59;102092.37;;;7.33;100.00
38289;BME280;24092;53.370;-6.588;2023-04-03T08:38:26;102093.84;;;7.61;100.00
38289;BME280;24092;53.370;-6.588;2023-04-03T08:41:01;102092.15;;;7.67;100.00
38289;BME280;24092;53.370;-6.588;2023-04-03T08:43:37;102091.63;;;7.17;100.00
38289;BME280;24092;53.370;-6.588;2023-04-03T08:46:11;102091.58;;;6.76;100.00
38289;BME280;24092;53.370;-6.588;2023-04-03T08:48:42;102090.73;;;7.81;100.00
38289;BME280;24092;53.370;-6.588;2023-04-03T08:51:13;102093.65;;;7.64;100.00
38289;BME280;24092;53.370;-6.588;2023-04-03T08:53:45;102096.04;;;7.78;100.00
38289;BME280;24092;53.370;-6.588;2023-04-03T08:56:17;102092.34;;;7.55;100.00
38289;BME280;24092;53.370;-6.588;2023-04-03T08:58:48;102096.40;;;7.96;100.00
38289;BME280;24092;53.370;-6.588;2023-04-03T09:01:20;102096.56;;;9.09;100.00
38289;BME280;24092;53.370;-6.588;2023-04-03T09:03:48;102091.25;;;7.62;100.00
38289;BME280;24092;53.370;-6.588;2023-04-03T09:06:18;102089.34;;;8.28;100.00
38289;BME280;24092;53.370;-6.588;2023-04-03T09:08:51;102095.41;;;8.64;100.00
38289;BME280;24092;53.370;-6.588;2023-04-03T09:11:25;102096.14;;;8.04;100.00
38289;BME280;24092;53.370;-6.588;2023-04-03T09:13:58;102088.34;;;7.57;100.00
38289;BME280;24092;53.370;-6.588;2023-04-03T09:16:35;102091.38;;;8.57;100.00
38289;BME280;24092;53.370;-6.588;2023-04-03T09:19:11;102091.60;;;6.64;100.00
38289;BME280;24092;53.370;-6.588;2023-04-03T09:21:42;102083.15;;;7.51;100.00
38289;BME280;24092;53.370;-6.588;2023-04-03T09:24:11;102083.35;;;7.97;100.00
38289;BME280;24092;53.370;-6.588;2023-04-03T09:26:43;102081.09;;;7.54;100.00
38289;BME280;24092;53.370;-6.588;2023-04-03T09:29:18;102083.26;;;6.56;100.00
38289;BME280;24092;53.370;-6.588;2023-04-03T09:31:48;102085.03;;;5.79;100.00
38289;BME280;24092;53.370;-6.588;2023-04-03T09:34:20;102085.33;;;4.35;100.00
38289;BME280;24092;53.370;-6.588;2023-04-03T09:36:51;102096.06;;;4.54;100.00
38289;BME280;24092;53.370;-6.588;2023-04-03T09:39:20;102093.26;;;5.26;100.00
38289;BME280;24092;53.370;-6.588;2023-04-03T09:42:04;102085.32;;;5.68;100.00
38289;BME280;24092;53.370;-6.588;2023-04-03T09:44:34;102082.34;;;5.06;100.00
38289;BME280;24092;53.370;-6.588;2023-04-03T09:47:18;102088.94;;;4.72;100.00
38289;BME280;24092;53.370;-6.588;2023-04-03T09:49:46;102087.00;;;4.91;100.00
38289;BME280;24092;53.370;-6.588;2023-04-03T09:52:24;102084.78;;;4.32;100.00
38289;BME280;24092;53.370;-6.588;2023-04-03T09:54:52;102092.83;;;4.87;100.00
38289;BME280;24092;53.370;-6.588;2023-04-03T09:57:19;102089.49;;;5.18;100.00
38289;BME280;24092;53.370;-6.588;2023-04-03T09:59:56;102084.88;;;5.33;100.00
38289;BME280;24092;53.370;-6.588;2023-04-03T10:02:33;102089.02;;;5.00;100.00
38289;BME280;24092;53.370;-6.588;2023-04-03T10:05:02;102085.41;;;4.68;100.00
38289;BME280;24092;53.370;-6.588;2023-04-03T10:07:32;102081.80;;;5.06;100.00
38289;BME280;24092;53.370;-6.588;2023-04-03T10:10:01;102083.73;;;4.76;100.00
38289;BME280;24092;53.370;-6.588;2023-04-03T10:12:29;102083.30;;;5.13;100.00
38289;BME280;24092;53.370;-6.588;2023-04-03T10:14:59;102075.37;;;4.54;100.00
38289;BME280;24092;53.370;-6.588;2023-04-03T10:17:36;102071.20;;;5.21;100.00
38289;BME280;24092;53.370;-6.588;2023-04-03T10:20:18;102069.76;;;5.99;100.00
38289;BME280;24092;53.370;-6.588;2023-04-03T10:22:57;102074.76;;;5.31;100.00
38289;BME280;24092;53.370;-6.588;2023-04-03T10:25:32;102077.48;;;5.49;100.00
38289;BME280;24092;53.370;-6.588;2023-04-03T10:28:06;102078.39;;;5.39;100.00
38289;BME280;24092;53.370;-6.588;2023-04-03T10:30:42;102079.03;;;5.74;100.00
38289;BME280;24092;53.370;-6.588;2023-04-03T10:33:22;102077.27;;;5.71;100.00
38289;BME280;24092;53.370;-6.588;2023-04-03T10:36:03;102072.21;;;5.39;100.00
38289;BME280;24092;53.370;-6.588;2023-04-03T10:38:38;102070.89;;;5.96;100.00
38289;BME280;24092;53.370;-6.588;2023-04-03T10:41:11;102065.65;;;6.15;100.00
38289;BME280;24092;53.370;-6.588;2023-04-03T10:43:48;102066.76;;;6.65;100.00
38289;BME280;24092;53.370;-6.588;2023-04-03T10:46:20;102067.98;;;6.74;100.00
38289;BME280;24092;53.370;-6.588;2023-04-03T10:49:03;102063.41;;;7.37;100.00
38289;BME280;24092;53.370;-6.588;2023-04-03T10:51:38;102065.52;;;7.52;100.00
38289;BME280;24092;53.370;-6.588;2023-04-03T10:54:11;102063.81;;;8.37;100.00
38289;BME280;24092;53.370;-6.588;2023-04-03T10:56:41;102065.97;;;7.78;100.00
38289;BME280;24092;53.370;-6.588;2023-04-03T10:59:18;102066.97;;;7.85;100.00
38289;BME280;24092;53.370;-6.588;2023-04-03T11:01:52;102062.72;;;7.86;100.00
38289;BME280;24092;53.370;-6.588;2023-04-03T11:04:22;102065.76;;;7.14;100.00
38289;BME280;24092;53.370;-6.588;2023-04-03T11:06:56;102064.94;;;6.81;100.00
38289;BME280;24092;53.370;-6.588;2023-04-03T11:09:26;102067.29;;;6.41;100.00
38289;BME280;24092;53.370;-6.588;2023-04-03T11:12:00;102067.36;;;6.90;100.00
38289;BME280;24092;53.370;-6.588;2023-04-03T11:14:31;102068.60;;;6.16;100.00
38289;BME280;24092;53.370;-6.588;2023-04-03T11:17:09;102060.13;;;6.37;100.00
38289;BME280;24092;53.370;-6.588;2023-04-03T11:19:41;102056.79;;;6.52;100.00
38289;BME280;24092;53.370;-6.588;2023-04-03T11:22:16;102054.08;;;7.19;100.00
38289;BME280;24092;53.370;-6.588;2023-04-03T11:24:57;102057.20;;;7.84;100.00
38289;BME280;24092;53.370;-6.588;2023-04-03T11:27:25;102054.93;;;8.41;100.00
38289;BME280;24092;53.370;-6.588;2023-04-03T11:29:55;102057.64;;;7.22;100.00
38289;BME280;24092;53.370;-6.588;2023-04-03T11:32:40;102059.39;;;7.28;100.00
38289;BME280;24092;53.370;-6.588;2023-04-03T11:35:12;102061.63;;;7.85;100.00
38289;BME280;24092;53.370;-6.588;2023-04-03T11:37:41;102059.63;;;7.43;100.00
38289;BME280;24092;53.370;-6.588;2023-04-03T11:40:22;102061.61;;;7.07;100.00
38289;BME280;24092;53.370;-6.588;2023-04-03T11:42:55;102063.79;;;6.36;100.00
38289;BME280;24092;53.370;-6.588;2023-04-03T11:45:35;102066.65;;;5.54;100.00
38289;BME280;24092;53.370;-6.588;2023-04-03T11:48:04;102063.91;;;5.74;100.00
38289;BME280;24092;53.370;-6.588;2023-04-03T11:50:40;102064.38;;;6.67;100.00
38289;BME280;24092;53.370;-6.588;2023-04-03T11:53:28;102061.08;;;6.47;100.00
38289;BME280;24092;53.370;-6.588;2023-04-03T11:55:58;102062.53;;;6.92;100.00
38289;BME280;24092;53.370;-6.588;2023-04-03T11:58:27;102059.73;;;7.22;100.00
38289;BME280;24092;53.370;-6.588;2023-04-03T12:00:59;102060.30;;;6.87;100.00
38289;BME280;24092;53.370;-6.588;2023-04-03T12:03:33;102062.61;;;6.67;100.00
38289;BME280;24092;53.370;-6.588;2023-04-03T12:06:49;102061.88;;;6.47;100.00
38289;BME280;24092;53.370;-6.588;2023-04-03T12:09:27;102058.26;;;6.49;100.00
38289;BME280;24092;53.370;-6.588;2023-04-03T12:11:56;102055.17;;;5.92;100.00
38289;BME280;24092;53.370;-6.588;2023-04-03T12:14:24;102049.08;;;5.80;100.00
38289;BME280;24092;53.370;-6.588;2023-04-03T12:16:53;102046.53;;;6.17;100.00
38289;BME280;24092;53.370;-6.588;2023-04-03T12:19:33;102044.52;;;5.81;100.00
38289;BME280;24092;53.370;-6.588;2023-04-03T12:22:18;102045.54;;;6.01;100.00
38289;BME280;24092;53.370;-6.588;2023-04-03T12:24:46;102038.65;;;6.36;100.00
38289;BME280;24092;53.370;-6.588;2023-04-03T12:27:22;102035.98;;;6.52;100.00
38289;BME280;24092;53.370;-6.588;2023-04-03T12:29:55;102034.61;;;5.32;100.00
38289;BME280;24092;53.370;-6.588;2023-04-03T12:32:34;102030.13;;;5.59;100.00
38289;BME280;24092;53.370;-6.588;2023-04-03T12:35:14;102033.63;;;5.74;100.00
38289;BME280;24092;53.370;-6.588;2023-04-03T12:37:57;102032.82;;;5.58;100.00
38289;BME280;24092;53.370;-6.588;2023-04-03T12:40:31;102029.64;;;5.32;100.00
38289;BME280;24092;53.370;-6.588;2023-04-03T12:43:17;102028.58;;;5.56;100.00
38289;BME280;24092;53.370;-6.588;2023-04-03T12:45:51;102024.80;;;5.59;100.00
38289;BME280;24092;53.370;-6.588;2023-04-03T12:48:24;102022.35;;;5.81;100.00
38289;BME280;24092;53.370;-6.588;2023-04-03T12:50:52;102018.22;;;6.65;100.00